sensor_id;sensor_type;location;lat;lon;timestamp;temperature;humidity
14517;DHT22;7344;50.864;4.362;2022-07-19T00:01:11;25.90;99.90
14517;DHT22;7344;50.864;4.362;2022-07-19T00:03:37;25.90;99.90
14517;DHT22;7344;50.864;4.362;2022-07-19T00:06:02;25.90;99.90
14517;DHT22;7344;50.864;4.362;2022-07-19T00:08:28;25.90;99.90
14517;DHT22;7344;50.864;4.362;2022-07-19T00:10:54;26.00;99.90
14517;DHT22;7344;50.864;4.362;2022-07-19T00:13:19;26.00;99.90
14517;DHT22;7344;50.864;4.362;2022-07-19T00:15:45;26.00;99.90
14517;DHT22;7344;50.864;4.362;2022-07-19T00:18:11;25.90;99.90
14517;DHT22;7344;50.864;4.362;2022-07-19T00:20:36;25.90;99.90
14517;DHT22;7344;50.864;4.362;2022-07-19T00:23:02;25.70;99.90
14517;DHT22;7344;50.864;4.362;2022-07-19T00:25:28;25.70;99.90
14517;DHT22;7344;50.864;4.362;2022-07-19T00:27:53;25.60;99.90
14517;DHT22;7344;50.864;4.362;2022-07-19T00:30:19;25.60;99.90
14517;DHT22;7344;50.864;4.362;2022-07-19T00:32:45;25.60;99.90
14517;DHT22;7344;50.864;4.362;2022-07-19T00:35:11;25.60;99.90
14517;DHT22;7344;50.864;4.362;2022-07-19T00:37:37;25.60;99.90
14517;DHT22;7344;50.864;4.362;2022-07-19T00:40:02;25.60;99.90
14517;DHT22;7344;50.864;4.362;2022-07-19T00:42:28;25.60;99.90
14517;DHT22;7344;50.864;4.362;2022-07-19T00:44:54;25.60;99.90
14517;DHT22;7344;50.864;4.362;2022-07-19T00:47:20;25.40;1.00
14517;DHT22;7344;50.864;4.362;2022-07-19T00:49:45;25.20;1.00
14517;DHT22;7344;50.864;4.362;2022-07-19T00:52:13;25.10;1.00
14517;DHT22;7344;50.864;4.362;2022-07-19T00:54:42;24.80;1.00
14517;DHT22;7344;50.864;4.362;2022-07-19T00:57:10;24.50;1.00
14517;DHT22;7344;50.864;4.362;2022-07-19T00:59:36;24.30;99.90
14517;DHT22;7344;50.864;4.362;2022-07-19T01:02:02;24.20;1.00
14517;DHT22;7344;50.864;4.362;2022-07-19T01:04:28;24.30;99.90
14517;DHT22;7344;50.864;4.362;2022-07-19T01:06:54;24.20;99.90
14517;DHT22;7344;50.864;4.362;2022-07-19T01:09:19;24.20;1.00
14517;DHT22;7344;50.864;4.362;2022-07-19T01:11:46;24.20;1.00
14517;DHT22;7344;50.864;4.362;2022-07-19T01:14:11;24.30;99.10
14517;DHT22;7344;50.864;4.362;2022-07-19T01:16:43;24.30;1.00
14517;DHT22;7344;50.864;4.362;2022-07-19T01:19:09;24.10;99.90
14517;DHT22;7344;50.864;4.362;2022-07-19T01:21:34;24.00;1.00
14517;DHT22;7344;50.864;4.362;2022-07-19T01:24:00;24.00;99.90
14517;DHT22;7344;50.864;4.362;2022-07-19T01:26:26;24.00;99.90
14517;DHT22;7344;50.864;4.362;2022-07-19T01:28:51;24.00;99.90
14517;DHT22;7344;50.864;4.362;2022-07-19T01:31:17;24.00;1.00
14517;DHT22;7344;50.864;4.362;2022-07-19T01:33:44;24.00;1.00
14517;DHT22;7344;50.864;4.362;2022-07-19T01:36:11;24.00;1.00
14517;DHT22;7344;50.864;4.362;2022-07-19T01:38:37;23.90;99.90
14517;DHT22;7344;50.864;4.362;2022-07-19T01:41:04;23.70;99.90
14517;DHT22;7344;50.864;4.362;2022-07-19T01:43:30;23.50;1.00
14517;DHT22;7344;50.864;4.362;2022-07-19T01:45:56;23.40;1.00
14517;DHT22;7344;50.864;4.362;2022-07-19T01:48:21;23.40;1.00
14517;DHT22;7344;50.864;4.362;2022-07-19T01:50:47;23.40;99.90
14517;DHT22;7344;50.864;4.362;2022-07-19T01:53:13;23.40;99.90
14517;DHT22;7344;50.864;4.362;2022-07-19T01:55:38;23.40;99.90
14517;DHT22;7344;50.864;4.362;2022-07-19T01:58:04;23.30;99.90
14517;DHT22;7344;50.864;4.362;2022-07-19T02:00:30;23.30;1.00
14517;DHT22;7344;50.864;4.362;2022-07-19T02:02:56;23.20;1.00
14517;DHT22;7344;50.864;4.362;2022-07-19T02:05:21;23.10;99.90
14517;DHT22;7344;50.864;4.362;2022-07-19T02:07:47;23.00;1.00
14517;DHT22;7344;50.864;4.362;2022-07-19T02:10:13;22.90;1.00
14517;DHT22;7344;50.864;4.362;2022-07-19T02:12:39;22.80;29.10
14517;DHT22;7344;50.864;4.362;2022-07-19T02:15:06;22.80;1.00
14517;DHT22;7344;50.864;4.362;2022-07-19T02:17:32;22.70;99.90
14517;DHT22;7344;50.864;4.362;2022-07-19T02:19:58;22.70;99.90
14517;DHT22;7344;50.864;4.362;2022-07-19T02:22:23;22.60;1.00
14517;DHT22;7344;50.864;4.362;2022-07-19T02:24:49;22.60;99.90
14517;DHT22;7344;50.864;4.362;2022-07-19T02:27:14;22.50;99.90
14517;DHT22;7344;50.864;4.362;2022-07-19T02:29:40;22.50;1.00
14517;DHT22;7344;50.864;4.362;2022-07-19T02:32:06;22.60;99.90
14517;DHT22;7344;50.864;4.362;2022-07-19T02:34:32;22.50;1.00
14517;DHT22;7344;50.864;4.362;2022-07-19T02:36:58;22.50;99.90
14517;DHT22;7344;50.864;4.362;2022-07-19T02:39:24;22.50;1.00
14517;DHT22;7344;50.864;4.362;2022-07-19T02:41:49;22.50;1.00
14517;DHT22;7344;50.864;4.362;2022-07-19T02:44:15;22.50;1.00
14517;DHT22;7344;50.864;4.362;2022-07-19T02:46:41;22.50;1.00
14517;DHT22;7344;50.864;4.362;2022-07-19T02:49:06;22.40;1.00
14517;DHT22;7344;50.864;4.362;2022-07-19T02:51:32;22.50;1.00
14517;DHT22;7344;50.864;4.362;2022-07-19T02:53:57;22.50;1.00
14517;DHT22;7344;50.864;4.362;2022-07-19T02:56:23;22.40;9.00
14517;DHT22;7344;50.864;4.362;2022-07-19T02:58:48;22.40;1.00
14517;DHT22;7344;50.864;4.362;2022-07-19T03:01:14;22.50;99.90
14517;DHT22;7344;50.864;4.362;2022-07-19T03:03:40;22.50;1.00
14517;DHT22;7344;50.864;4.362;2022-07-19T03:06:17;22.40;98.80
14517;DHT22;7344;50.864;4.362;2022-07-19T03:08:43;22.30;1.00
14517;DHT22;7344;50.864;4.362;2022-07-19T03:11:09;22.20;1.00
14517;DHT22;7344;50.864;4.362;2022-07-19T03:13:35;22.20;1.00
14517;DHT22;7344;50.864;4.362;2022-07-19T03:16:01;22.20;11.80
14517;DHT22;7344;50.864;4.362;2022-07-19T03:18:26;22.10;1.00
14517;DHT22;7344;50.864;4.362;2022-07-19T03:20:52;22.20;1.00
14517;DHT22;7344;50.864;4.362;2022-07-19T03:23:18;22.10;84.90
14517;DHT22;7344;50.864;4.362;2022-07-19T03:25:43;22.00;1.00
14517;DHT22;7344;50.864;4.362;2022-07-19T03:28:09;22.00;99.90
14517;DHT22;7344;50.864;4.362;2022-07-19T03:30:34;22.00;99.90
14517;DHT22;7344;50.864;4.362;2022-07-19T03:33:00;22.00;99.90
14517;DHT22;7344;50.864;4.362;2022-07-19T03:35:26;22.00;99.90
14517;DHT22;7344;50.864;4.362;2022-07-19T03:37:52;22.00;1.00
14517;DHT22;7344;50.864;4.362;2022-07-19T03:40:17;22.10;1.00
14517;DHT22;7344;50.864;4.362;2022-07-19T03:42:43;22.10;99.90
14517;DHT22;7344;50.864;4.362;2022-07-19T03:45:09;22.10;99.90
14517;DHT22;7344;50.864;4.362;2022-07-19T03:47:35;22.10;99.90
14517;DHT22;7344;50.864;4.362;2022-07-19T03:50:00;22.10;99.90
14517;DHT22;7344;50.864;4.362;2022-07-19T03:52:26;22.00;99.90
14517;DHT22;7344;50.864;4.362;2022-07-19T03:54:52;22.00;76.50
14517;DHT22;7344;50.864;4.362;2022-07-19T03:57:18;22.00;99.90
14517;DHT22;7344;50.864;4.362;2022-07-19T03:59:43;22.00;99.90
14517;DHT22;7344;50.864;4.362;2022-07-19T04:02:09;22.00;1.00
14517;DHT22;7344;50.864;4.362;2022-07-19T04:04:36;22.10;99.90
14517;DHT22;7344;50.864;4.362;2022-07-19T04:07:01;22.20;1.00
14517;DHT22;7344;50.864;4.362;2022-07-19T04:09:27;22.30;99.90
14517;DHT22;7344;50.864;4.362;2022-07-19T04:11:53;22.30;99.90
14517;DHT22;7344;50.864;4.362;2022-07-19T04:14:18;22.40;1.00
14517;DHT22;7344;50.864;4.362;2022-07-19T04:16:44;22.50;27.20
14517;DHT22;7344;50.864;4.362;2022-07-19T04:19:09;22.70;1.00
14517;DHT22;7344;50.864;4.362;2022-07-19T04:21:35;22.90;1.00
14517;DHT22;7344;50.864;4.362;2022-07-19T04:24:00;23.20;99.90
14517;DHT22;7344;50.864;4.362;2022-07-19T04:26:26;23.50;1.00
14517;DHT22;7344;50.864;4.362;2022-07-19T04:28:52;23.70;1.00
14517;DHT22;7344;50.864;4.362;2022-07-19T04:31:17;24.10;99.90
14517;DHT22;7344;50.864;4.362;2022-07-19T04:33:43;24.60;1.00
14517;DHT22;7344;50.864;4.362;2022-07-19T04:36:08;25.10;99.90
14517;DHT22;7344;50.864;4.362;2022-07-19T04:38:34;25.40;1.00
14517;DHT22;7344;50.864;4.362;2022-07-19T04:41:00;25.90;1.00
14517;DHT22;7344;50.864;4.362;2022-07-19T04:43:26;26.30;1.00
14517;DHT22;7344;50.864;4.362;2022-07-19T04:45:52;27.00;1.00
14517;DHT22;7344;50.864;4.362;2022-07-19T04:48:17;27.50;99.90
14517;DHT22;7344;50.864;4.362;2022-07-19T04:50:43;28.10;99.90
14517;DHT22;7344;50.864;4.362;2022-07-19T04:53:09;28.70;99.90
14517;DHT22;7344;50.864;4.362;2022-07-19T04:55:36;29.20;99.90
14517;DHT22;7344;50.864;4.362;2022-07-19T04:58:03;29.50;99.90
14517;DHT22;7344;50.864;4.362;2022-07-19T05:00:28;29.90;99.90
14517;DHT22;7344;50.864;4.362;2022-07-19T05:02:55;30.20;99.90
14517;DHT22;7344;50.864;4.362;2022-07-19T05:05:21;30.90;99.90
14517;DHT22;7344;50.864;4.362;2022-07-19T05:07:46;31.40;99.90
14517;DHT22;7344;50.864;4.362;2022-07-19T05:10:13;31.70;99.90
14517;DHT22;7344;50.864;4.362;2022-07-19T05:12:39;32.40;99.90
14517;DHT22;7344;50.864;4.362;2022-07-19T05:15:06;32.80;99.90
14517;DHT22;7344;50.864;4.362;2022-07-19T05:17:31;33.40;99.90
14517;DHT22;7344;50.864;4.362;2022-07-19T05:19:57;33.80;94.20
14517;DHT22;7344;50.864;4.362;2022-07-19T05:22:23;33.80;80.70
14517;DHT22;7344;50.864;4.362;2022-07-19T05:24:51;34.50;74.80
14517;DHT22;7344;50.864;4.362;2022-07-19T05:27:17;35.00;60.00
14517;DHT22;7344;50.864;4.362;2022-07-19T05:29:42;35.20;48.90
14517;DHT22;7344;50.864;4.362;2022-07-19T05:32:08;35.40;41.90
14517;DHT22;7344;50.864;4.362;2022-07-19T05:34:34;35.50;37.30
14517;DHT22;7344;50.864;4.362;2022-07-19T05:36:59;36.10;30.00
14517;DHT22;7344;50.864;4.362;2022-07-19T05:39:25;36.00;24.90
14517;DHT22;7344;50.864;4.362;2022-07-19T05:41:51;36.30;22.60
14517;DHT22;7344;50.864;4.362;2022-07-19T05:44:17;37.40;17.10
14517;DHT22;7344;50.864;4.362;2022-07-19T05:46:43;37.90;5.50
14517;DHT22;7344;50.864;4.362;2022-07-19T05:49:08;37.90;1.00
14517;DHT22;7344;50.864;4.362;2022-07-19T05:51:35;38.70;1.00
14517;DHT22;7344;50.864;4.362;2022-07-19T05:54:01;39.20;1.00
14517;DHT22;7344;50.864;4.362;2022-07-19T05:56:28;39.90;1.00
14517;DHT22;7344;50.864;4.362;2022-07-19T05:58:53;40.40;1.00
14517;DHT22;7344;50.864;4.362;2022-07-19T06:01:19;40.90;1.00
14517;DHT22;7344;50.864;4.362;2022-07-19T06:06:15;41.40;1.00
14517;DHT22;7344;50.864;4.362;2022-07-19T06:08:41;41.60;1.00
14517;DHT22;7344;50.864;4.362;2022-07-19T06:11:07;42.10;1.00
14517;DHT22;7344;50.864;4.362;2022-07-19T06:13:32;42.60;1.00
14517;DHT22;7344;50.864;4.362;2022-07-19T06:15:58;43.10;1.00
14517;DHT22;7344;50.864;4.362;2022-07-19T06:18:24;43.30;1.00
14517;DHT22;7344;50.864;4.362;2022-07-19T06:20:49;43.10;1.00
14517;DHT22;7344;50.864;4.362;2022-07-19T06:23:15;43.70;1.00
14517;DHT22;7344;50.864;4.362;2022-07-19T06:25:40;43.70;1.00
14517;DHT22;7344;50.864;4.362;2022-07-19T06:28:06;43.50;1.00
14517;DHT22;7344;50.864;4.362;2022-07-19T06:30:32;44.10;1.00
14517;DHT22;7344;50.864;4.362;2022-07-19T06:32:57;44.40;1.00
14517;DHT22;7344;50.864;4.362;2022-07-19T06:35:23;44.40;1.00
14517;DHT22;7344;50.864;4.362;2022-07-19T06:37:48;44.80;1.00
14517;DHT22;7344;50.864;4.362;2022-07-19T06:40:14;44.90;1.00
14517;DHT22;7344;50.864;4.362;2022-07-19T06:42:39;44.30;1.00
14517;DHT22;7344;50.864;4.362;2022-07-19T06:45:05;43.80;1.00
14517;DHT22;7344;50.864;4.362;2022-07-19T06:47:31;44.10;1.00
14517;DHT22;7344;50.864;4.362;2022-07-19T06:49:58;45.20;1.00
14517;DHT22;7344;50.864;4.362;2022-07-19T06:52:24;44.50;1.00
14517;DHT22;7344;50.864;4.362;2022-07-19T06:54:50;44.80;1.00
14517;DHT22;7344;50.864;4.362;2022-07-19T06:57:15;44.30;1.00
14517;DHT22;7344;50.864;4.362;2022-07-19T06:59:41;43.90;1.00
14517;DHT22;7344;50.864;4.362;2022-07-19T07:02:07;44.20;1.00
14517;DHT22;7344;50.864;4.362;2022-07-19T07:04:33;44.40;1.00
14517;DHT22;7344;50.864;4.362;2022-07-19T07:06:58;44.00;1.00
14517;DHT22;7344;50.864;4.362;2022-07-19T07:09:24;44.00;1.00
14517;DHT22;7344;50.864;4.362;2022-07-19T07:11:50;44.20;1.00
14517;DHT22;7344;50.864;4.362;2022-07-19T07:14:15;44.10;1.00
14517;DHT22;7344;50.864;4.362;2022-07-19T07:16:41;43.50;1.00
14517;DHT22;7344;50.864;4.362;2022-07-19T07:19:07;43.80;1.00
14517;DHT22;7344;50.864;4.362;2022-07-19T07:21:32;43.70;1.00
14517;DHT22;7344;50.864;4.362;2022-07-19T07:24:01;43.80;1.00
14517;DHT22;7344;50.864;4.362;2022-07-19T07:26:27;43.60;1.00
14517;DHT22;7344;50.864;4.362;2022-07-19T07:28:53;43.70;1.00
14517;DHT22;7344;50.864;4.362;2022-07-19T07:31:18;43.70;1.00
14517;DHT22;7344;50.864;4.362;2022-07-19T07:33:44;43.70;1.00
14517;DHT22;7344;50.864;4.362;2022-07-19T07:36:10;43.90;1.00
14517;DHT22;7344;50.864;4.362;2022-07-19T07:38:36;43.70;1.00
14517;DHT22;7344;50.864;4.362;2022-07-19T07:41:02;43.80;1.00
14517;DHT22;7344;50.864;4.362;2022-07-19T07:43:28;42.70;1.00
14517;DHT22;7344;50.864;4.362;2022-07-19T07:45:54;43.20;1.00
14517;DHT22;7344;50.864;4.362;2022-07-19T07:48:19;43.60;1.00
14517;DHT22;7344;50.864;4.362;2022-07-19T07:50:45;43.60;1.00
14517;DHT22;7344;50.864;4.362;2022-07-19T07:53:10;42.90;1.00
14517;DHT22;7344;50.864;4.362;2022-07-19T07:55:36;43.50;1.00
14517;DHT22;7344;50.864;4.362;2022-07-19T07:58:06;43.20;1.00
14517;DHT22;7344;50.864;4.362;2022-07-19T08:00:31;42.60;1.00
14517;DHT22;7344;50.864;4.362;2022-07-19T08:02:57;42.50;1.00
14517;DHT22;7344;50.864;4.362;2022-07-19T08:05:23;42.60;1.00
14517;DHT22;7344;50.864;4.362;2022-07-19T08:07:49;42.90;1.00
14517;DHT22;7344;50.864;4.362;2022-07-19T08:10:15;42.60;1.00
14517;DHT22;7344;50.864;4.362;2022-07-19T08:12:40;42.50;1.00
14517;DHT22;7344;50.864;4.362;2022-07-19T08:15:07;42.60;1.00
14517;DHT22;7344;50.864;4.362;2022-07-19T08:17:33;42.40;1.00
14517;DHT22;7344;50.864;4.362;2022-07-19T08:19:59;41.70;1.00
14517;DHT22;7344;50.864;4.362;2022-07-19T08:22:26;41.30;1.00
14517;DHT22;7344;50.864;4.362;2022-07-19T08:24:53;41.50;1.00
14517;DHT22;7344;50.864;4.362;2022-07-19T08:27:19;42.30;1.00
14517;DHT22;7344;50.864;4.362;2022-07-19T08:29:45;42.60;1.00
14517;DHT22;7344;50.864;4.362;2022-07-19T08:32:10;42.80;1.00
14517;DHT22;7344;50.864;4.362;2022-07-19T08:34:36;42.30;1.00
14517;DHT22;7344;50.864;4.362;2022-07-19T08:37:02;42.30;1.00
14517;DHT22;7344;50.864;4.362;2022-07-19T08:39:28;41.10;1.00
14517;DHT22;7344;50.864;4.362;2022-07-19T08:41:54;40.50;1.00
14517;DHT22;7344;50.864;4.362;2022-07-19T08:44:20;40.30;1.00
14517;DHT22;7344;50.864;4.362;2022-07-19T08:46:48;39.50;1.00
14517;DHT22;7344;50.864;4.362;2022-07-19T08:49:14;39.40;1.00
14517;DHT22;7344;50.864;4.362;2022-07-19T08:51:41;39.40;1.00
14517;DHT22;7344;50.864;4.362;2022-07-19T08:54:07;39.40;1.00
14517;DHT22;7344;50.864;4.362;2022-07-19T08:56:33;39.20;1.00
14517;DHT22;7344;50.864;4.362;2022-07-19T08:59:17;39.60;1.00
14517;DHT22;7344;50.864;4.362;2022-07-19T09:01:43;39.90;1.00
14517;DHT22;7344;50.864;4.362;2022-07-19T09:04:12;39.90;1.00
14517;DHT22;7344;50.864;4.362;2022-07-19T09:06:43;39.60;1.00
14517;DHT22;7344;50.864;4.362;2022-07-19T09:09:09;40.20;1.00
14517;DHT22;7344;50.864;4.362;2022-07-19T09:11:38;39.40;1.00
14517;DHT22;7344;50.864;4.362;2022-07-19T09:14:08;38.00;1.00
14517;DHT22;7344;50.864;4.362;2022-07-19T09:17:02;38.70;1.00
14517;DHT22;7344;50.864;4.362;2022-07-19T09:19:31;38.60;1.00
14517;DHT22;7344;50.864;4.362;2022-07-19T09:22:09;37.80;1.00
14517;DHT22;7344;50.864;4.362;2022-07-19T09:24:40;38.40;1.00
14517;DHT22;7344;50.864;4.362;2022-07-19T09:27:14;39.10;1.00
14517;DHT22;7344;50.864;4.362;2022-07-19T09:29:45;39.10;1.00
14517;DHT22;7344;50.864;4.362;2022-07-19T09:35:00;38.80;1.00
14517;DHT22;7344;50.864;4.362;2022-07-19T09:37:31;39.60;1.00
14517;DHT22;7344;50.864;4.362;2022-07-19T09:40:06;39.60;1.00
14517;DHT22;7344;50.864;4.362;2022-07-19T09:42:43;39.90;1.00
14517;DHT22;7344;50.864;4.362;2022-07-19T09:45:14;39.10;1.00
14517;DHT22;7344;50.864;4.362;2022-07-19T09:47:42;38.90;1.00
14517;DHT22;7344;50.864;4.362;2022-07-19T09:50:14;39.60;1.00
14517;DHT22;7344;50.864;4.362;2022-07-19T09:52:43;39.40;1.00
14517;DHT22;7344;50.864;4.362;2022-07-19T09:55:09;38.50;1.00
14517;DHT22;7344;50.864;4.362;2022-07-19T09:57:43;38.50;1.00
14517;DHT22;7344;50.864;4.362;2022-07-19T10:00:18;38.50;1.00
14517;DHT22;7344;50.864;4.362;2022-07-19T10:02:48;38.70;1.00
14517;DHT22;7344;50.864;4.362;2022-07-19T10:05:15;38.60;1.00
14517;DHT22;7344;50.864;4.362;2022-07-19T10:07:41;39.10;1.00
14517;DHT22;7344;50.864;4.362;2022-07-19T10:10:09;39.50;1.00
14517;DHT22;7344;50.864;4.362;2022-07-19T10:12:38;39.20;1.00
14517;DHT22;7344;50.864;4.362;2022-07-19T10:15:05;39.50;1.00
14517;DHT22;7344;50.864;4.362;2022-07-19T10:19:59;40.40;1.00
14517;DHT22;7344;50.864;4.362;2022-07-19T10:22:27;40.50;1.00
14517;DHT22;7344;50.864;4.362;2022-07-19T10:32:42;39.40;1.00
14517;DHT22;7344;50.864;4.362;2022-07-19T10:37:55;39.70;1.00
14517;DHT22;7344;50.864;4.362;2022-07-19T10:43:11;41.10;1.00
14517;DHT22;7344;50.864;4.362;2022-07-19T10:45:38;40.60;1.00
14517;DHT22;7344;50.864;4.362;2022-07-19T10:48:09;39.80;1.00
14517;DHT22;7344;50.864;4.362;2022-07-19T10:50:44;40.30;1.00
14517;DHT22;7344;50.864;4.362;2022-07-19T10:53:09;39.50;1.00
14517;DHT22;7344;50.864;4.362;2022-07-19T10:55:35;39.20;1.00
14517;DHT22;7344;50.864;4.362;2022-07-19T11:00:32;38.70;1.00
14517;DHT22;7344;50.864;4.362;2022-07-19T11:05:48;39.60;1.00
14517;DHT22;7344;50.864;4.362;2022-07-19T11:08:15;39.70;1.00
14517;DHT22;7344;50.864;4.362;2022-07-19T11:10:41;40.20;1.00
14517;DHT22;7344;50.864;4.362;2022-07-19T11:13:06;40.30;1.00
14517;DHT22;7344;50.864;4.362;2022-07-19T11:15:33;40.90;1.00
14517;DHT22;7344;50.864;4.362;2022-07-19T11:18:02;41.20;1.00
14517;DHT22;7344;50.864;4.362;2022-07-19T11:20:30;40.40;1.00
14517;DHT22;7344;50.864;4.362;2022-07-19T11:22:57;39.70;1.00
14517;DHT22;7344;50.864;4.362;2022-07-19T11:27:53;39.50;1.00
14517;DHT22;7344;50.864;4.362;2022-07-19T11:30:21;39.70;1.00
14517;DHT22;7344;50.864;4.362;2022-07-19T11:32:58;39.50;1.00
14517;DHT22;7344;50.864;4.362;2022-07-19T11:35:25;39.50;1.00
14517;DHT22;7344;50.864;4.362;2022-07-19T11:37:53;39.20;1.00
14517;DHT22;7344;50.864;4.362;2022-07-19T11:40:20;39.20;1.00
14517;DHT22;7344;50.864;4.362;2022-07-19T11:42:47;39.30;1.00
14517;DHT22;7344;50.864;4.362;2022-07-19T11:45:19;39.20;1.00
14517;DHT22;7344;50.864;4.362;2022-07-19T11:47:48;39.10;1.00
14517;DHT22;7344;50.864;4.362;2022-07-19T11:50:15;39.00;1.00
14517;DHT22;7344;50.864;4.362;2022-07-19T11:52:54;38.80;1.00
14517;DHT22;7344;50.864;4.362;2022-07-19T11:55:22;38.70;1.00
14517;DHT22;7344;50.864;4.362;2022-07-19T11:57:49;38.20;1.00
14517;DHT22;7344;50.864;4.362;2022-07-19T12:00:15;38.20;1.00
14517;DHT22;7344;50.864;4.362;2022-07-19T12:03:05;38.30;1.00
14517;DHT22;7344;50.864;4.362;2022-07-19T12:05:37;38.10;1.00
14517;DHT22;7344;50.864;4.362;2022-07-19T12:08:04;38.10;1.00
14517;DHT22;7344;50.864;4.362;2022-07-19T12:10:43;37.60;1.00
14517;DHT22;7344;50.864;4.362;2022-07-19T12:13:14;37.90;1.00
14517;DHT22;7344;50.864;4.362;2022-07-19T12:15:49;37.90;1.00
14517;DHT22;7344;50.864;4.362;2022-07-19T12:18:16;37.90;1.00
14517;DHT22;7344;50.864;4.362;2022-07-19T12:20:44;37.60;1.00
14517;DHT22;7344;50.864;4.362;2022-07-19T12:23:15;37.60;1.00
14517;DHT22;7344;50.864;4.362;2022-07-19T12:25:42;37.60;1.00
14517;DHT22;7344;50.864;4.362;2022-07-19T12:28:08;37.90;1.00
14517;DHT22;7344;50.864;4.362;2022-07-19T12:30:34;38.10;1.00
14517;DHT22;7344;50.864;4.362;2022-07-19T12:33:09;38.20;1.00
14517;DHT22;7344;50.864;4.362;2022-07-19T12:35:46;37.90;1.00
14517;DHT22;7344;50.864;4.362;2022-07-19T12:38:13;37.70;1.00
14517;DHT22;7344;50.864;4.362;2022-07-19T12:40:40;37.80;1.00
14517;DHT22;7344;50.864;4.362;2022-07-19T12:43:07;37.70;1.00
14517;DHT22;7344;50.864;4.362;2022-07-19T12:45:41;37.70;1.00
14517;DHT22;7344;50.864;4.362;2022-07-19T12:48:10;37.80;1.00
14517;DHT22;7344;50.864;4.362;2022-07-19T12:50:45;38.00;1.00
14517;DHT22;7344;50.864;4.362;2022-07-19T12:53:12;37.90;1.00
14517;DHT22;7344;50.864;4.362;2022-07-19T12:55:39;38.00;1.00
14517;DHT22;7344;50.864;4.362;2022-07-19T12:58:07;38.10;1.00
14517;DHT22;7344;50.864;4.362;2022-07-19T13:00:33;38.00;1.00
14517;DHT22;7344;50.864;4.362;2022-07-19T13:03:00;37.90;1.00
14517;DHT22;7344;50.864;4.362;2022-07-19T13:05:27;37.70;1.00
14517;DHT22;7344;50.864;4.362;2022-07-19T13:07:53;37.90;1.00
14517;DHT22;7344;50.864;4.362;2022-07-19T13:10:19;37.90;1.00
14517;DHT22;7344;50.864;4.362;2022-07-19T13:12:45;38.10;1.00
14517;DHT22;7344;50.864;4.362;2022-07-19T13:15:12;38.20;1.00
14517;DHT22;7344;50.864;4.362;2022-07-19T13:17:38;38.20;1.00
14517;DHT22;7344;50.864;4.362;2022-07-19T13:20:05;38.20;1.00
14517;DHT22;7344;50.864;4.362;2022-07-19T13:22:35;38.20;1.00
14517;DHT22;7344;50.864;4.362;2022-07-19T13:25:02;38.00;1.00
14517;DHT22;7344;50.864;4.362;2022-07-19T13:27:28;37.90;1.00
14517;DHT22;7344;50.864;4.362;2022-07-19T13:29:54;38.00;1.00
14517;DHT22;7344;50.864;4.362;2022-07-19T13:32:19;38.00;1.00
14517;DHT22;7344;50.864;4.362;2022-07-19T13:34:45;38.10;1.00
14517;DHT22;7344;50.864;4.362;2022-07-19T13:37:10;38.10;1.00
14517;DHT22;7344;50.864;4.362;2022-07-19T13:39:36;38.20;1.00
14517;DHT22;7344;50.864;4.362;2022-07-19T13:42:02;38.10;1.00
14517;DHT22;7344;50.864;4.362;2022-07-19T13:44:28;38.10;1.00
14517;DHT22;7344;50.864;4.362;2022-07-19T13:46:54;38.10;1.00
14517;DHT22;7344;50.864;4.362;2022-07-19T13:49:20;38.00;1.00
14517;DHT22;7344;50.864;4.362;2022-07-19T13:51:46;37.80;1.00
14517;DHT22;7344;50.864;4.362;2022-07-19T13:54:13;37.90;1.00
14517;DHT22;7344;50.864;4.362;2022-07-19T13:56:39;37.90;1.00
14517;DHT22;7344;50.864;4.362;2022-07-19T13:59:05;38.00;1.00
14517;DHT22;7344;50.864;4.362;2022-07-19T14:01:31;38.10;1.00
14517;DHT22;7344;50.864;4.362;2022-07-19T14:03:57;37.90;1.00
14517;DHT22;7344;50.864;4.362;2022-07-19T14:06:22;37.90;1.00
14517;DHT22;7344;50.864;4.362;2022-07-19T14:08:51;38.00;1.00
14517;DHT22;7344;50.864;4.362;2022-07-19T14:11:17;38.00;1.00
14517;DHT22;7344;50.864;4.362;2022-07-19T14:13:42;38.00;1.00
14517;DHT22;7344;50.864;4.362;2022-07-19T14:16:08;38.10;1.00
14517;DHT22;7344;50.864;4.362;2022-07-19T14:18:34;38.10;1.00
14517;DHT22;7344;50.864;4.362;2022-07-19T14:21:00;38.10;1.00
14517;DHT22;7344;50.864;4.362;2022-07-19T14:23:26;38.10;1.00
14517;DHT22;7344;50.864;4.362;2022-07-19T14:25:52;38.20;1.00
14517;DHT22;7344;50.864;4.362;2022-07-19T14:28:18;38.30;1.00
14517;DHT22;7344;50.864;4.362;2022-07-19T14:30:44;38.20;1.00
14517;DHT22;7344;50.864;4.362;2022-07-19T14:33:09;38.30;1.00
14517;DHT22;7344;50.864;4.362;2022-07-19T14:35:35;38.30;1.00
14517;DHT22;7344;50.864;4.362;2022-07-19T14:38:01;38.30;1.00
14517;DHT22;7344;50.864;4.362;2022-07-19T14:40:27;38.30;1.00
14517;DHT22;7344;50.864;4.362;2022-07-19T14:42:52;38.40;1.00
14517;DHT22;7344;50.864;4.362;2022-07-19T14:45:18;38.40;1.00
14517;DHT22;7344;50.864;4.362;2022-07-19T14:47:44;38.30;1.00
14517;DHT22;7344;50.864;4.362;2022-07-19T14:50:11;38.40;1.00
14517;DHT22;7344;50.864;4.362;2022-07-19T14:52:37;38.50;1.00
14517;DHT22;7344;50.864;4.362;2022-07-19T14:55:03;38.30;1.00
14517;DHT22;7344;50.864;4.362;2022-07-19T14:57:29;38.30;1.00
14517;DHT22;7344;50.864;4.362;2022-07-19T14:59:55;38.10;1.00
14517;DHT22;7344;50.864;4.362;2022-07-19T15:02:20;38.00;1.00
14517;DHT22;7344;50.864;4.362;2022-07-19T15:04:46;38.10;1.00
14517;DHT22;7344;50.864;4.362;2022-07-19T15:07:12;38.10;1.00
14517;DHT22;7344;50.864;4.362;2022-07-19T15:09:38;38.20;1.00
14517;DHT22;7344;50.864;4.362;2022-07-19T15:12:04;38.30;1.00
14517;DHT22;7344;50.864;4.362;2022-07-19T15:14:30;38.10;1.00
14517;DHT22;7344;50.864;4.362;2022-07-19T15:16:57;38.20;1.00
14517;DHT22;7344;50.864;4.362;2022-07-19T15:19:23;38.30;1.00
14517;DHT22;7344;50.864;4.362;2022-07-19T15:21:49;38.40;1.00
14517;DHT22;7344;50.864;4.362;2022-07-19T15:24:14;38.40;1.00
14517;DHT22;7344;50.864;4.362;2022-07-19T15:26:40;38.20;1.00
14517;DHT22;7344;50.864;4.362;2022-07-19T15:29:06;38.30;1.00
14517;DHT22;7344;50.864;4.362;2022-07-19T15:31:31;38.20;1.00
14517;DHT22;7344;50.864;4.362;2022-07-19T15:33:57;38.20;1.00
14517;DHT22;7344;50.864;4.362;2022-07-19T15:36:23;38.20;1.00
14517;DHT22;7344;50.864;4.362;2022-07-19T15:38:49;38.10;1.00
14517;DHT22;7344;50.864;4.362;2022-07-19T15:41:15;38.10;1.00
14517;DHT22;7344;50.864;4.362;2022-07-19T15:43:43;38.20;1.00
14517;DHT22;7344;50.864;4.362;2022-07-19T15:46:09;38.20;1.00
14517;DHT22;7344;50.864;4.362;2022-07-19T15:48:36;38.10;1.00
14517;DHT22;7344;50.864;4.362;2022-07-19T15:51:01;38.20;1.00
14517;DHT22;7344;50.864;4.362;2022-07-19T15:53:27;38.30;1.00
14517;DHT22;7344;50.864;4.362;2022-07-19T15:55:53;38.30;1.00
14517;DHT22;7344;50.864;4.362;2022-07-19T15:58:18;38.30;1.00
14517;DHT22;7344;50.864;4.362;2022-07-19T16:00:44;38.20;1.00
14517;DHT22;7344;50.864;4.362;2022-07-19T16:03:09;38.10;1.00
14517;DHT22;7344;50.864;4.362;2022-07-19T16:05:35;38.10;1.00
14517;DHT22;7344;50.864;4.362;2022-07-19T16:08:01;38.20;1.00
14517;DHT22;7344;50.864;4.362;2022-07-19T16:10:26;38.20;1.00
14517;DHT22;7344;50.864;4.362;2022-07-19T16:12:52;38.20;1.00
14517;DHT22;7344;50.864;4.362;2022-07-19T16:15:17;38.20;1.00
14517;DHT22;7344;50.864;4.362;2022-07-19T16:17:43;38.00;1.00
14517;DHT22;7344;50.864;4.362;2022-07-19T16:20:11;38.10;1.00
14517;DHT22;7344;50.864;4.362;2022-07-19T16:22:36;38.00;1.00